Time;durP1;ratioP1;P1;durP2;ratioP2;P2;SDS_P1;SDS_P2;PMS_P1;PMS_P2;Temp;Humidity;BMP_temperature;BMP_pressure;BME280_temperature;BME280_humidity;BME280_pressure;Samples;Min_cycle;Max_cycle;Signal;HPM_P1;HPM_P2
2022/07/26 00:00:04;;;;;;;4.38;2.17;;;;;;;19.37;75.63;100584.41;10596744;28;20388;-77
2022/07/26 00:05:07;;;;;;;2.40;1.95;;;;;;;19.39;75.51;100575.72;10614206;28;20051;-77
2022/07/26 00:10:10;;;;;;;2.60;2.22;;;;;;;19.44;75.93;100581.09;10591696;28;20085;-77
2022/07/26 00:15:13;;;;;;;4.00;2.10;;;;;;;19.45;76.14;100580.75;10592991;28;20067;-77
2022/07/26 00:20:15;;;;;;;3.75;2.20;;;;;;;19.28;77.10;100583.69;10594187;28;20036;-77
2022/07/26 00:25:18;;;;;;;2.90;2.53;;;;;;;19.25;76.93;100573.22;10614470;28;20043;-77
2022/07/26 00:30:20;;;;;;;2.78;2.22;;;;;;;19.20;77.59;100568.69;10612631;28;20036;-77
2022/07/26 00:35:23;;;;;;;3.40;2.42;;;;;;;18.95;78.40;100578.88;10594854;28;20042;-78
2022/07/26 00:40:25;;;;;;;4.30;2.17;;;;;;;18.86;79.05;100571.75;10613059;28;20039;-77
2022/07/26 00:45:27;;;;;;;3.35;2.20;;;;;;;19.06;79.39;100570.13;10613231;28;20039;-78
2022/07/26 00:50:30;;;;;;;3.70;2.28;;;;;;;19.13;79.20;100570.41;10612804;28;20040;-77
2022/07/26 00:55:32;;;;;;;3.53;2.15;;;;;;;19.22;78.50;100569.16;10593838;28;20049;-77
2022/07/26 01:00:34;;;;;;;2.42;2.20;;;;;;;19.27;78.57;100565.38;10593022;28;20047;-77
2022/07/26 01:05:37;;;;;;;2.92;2.40;;;;;;;19.28;78.22;100555.88;10611308;28;20063;-77
2022/07/26 01:10:39;;;;;;;2.72;2.13;;;;;;;19.30;78.04;100548.00;10594289;28;20047;-77
2022/07/26 01:15:41;;;;;;;2.38;2.17;;;;;;;19.25;78.00;100554.56;10596218;28;20044;-77
2022/07/26 01:20:45;;;;;;;2.25;2.05;;;;;;;19.25;78.30;100553.75;10569089;28;20055;-78
2022/07/26 01:25:48;;;;;;;2.03;1.83;;;;;;;19.39;77.69;100545.09;10569740;28;20036;-77
2022/07/26 01:30:50;;;;;;;2.30;2.10;;;;;;;19.46;77.82;100550.94;10574734;28;20036;-78
2022/07/26 01:35:52;;;;;;;2.88;2.25;;;;;;;19.41;77.50;100543.59;10610842;28;20054;-78
2022/07/26 01:40:55;;;;;;;3.92;2.30;;;;;;;19.39;77.37;100551.50;10588468;28;20036;-77
2022/07/26 01:45:57;;;;;;;3.25;2.45;;;;;;;19.33;77.63;100546.50;10574210;28;20048;-77
2022/07/26 01:51:00;;;;;;;4.43;2.20;;;;;;;19.31;77.71;100554.38;10591126;28;20044;-77
2022/07/26 01:56:02;;;;;;;2.17;2.00;;;;;;;19.29;77.59;100563.06;10591951;28;20064;-77
2022/07/26 02:01:05;;;;;;;2.70;2.20;;;;;;;19.32;77.55;100553.22;10592244;28;20051;-77
2022/07/26 02:06:07;;;;;;;2.92;2.10;;;;;;;19.40;77.84;100557.88;10610197;28;20040;-77
2022/07/26 02:11:10;;;;;;;2.65;2.08;;;;;;;19.63;77.31;100548.00;10591376;28;20044;-77
2022/07/26 02:16:13;;;;;;;2.60;2.22;;;;;;;19.85;76.42;100546.78;10572529;28;20413;-77
2022/07/26 02:21:15;;;;;;;2.20;2.00;;;;;;;19.99;75.65;100547.25;10550319;28;20129;-77
2022/07/26 02:26:18;;;;;;;2.78;1.85;;;;;;;20.15;74.95;100545.41;10568684;28;20059;-78
2022/07/26 02:31:20;;;;;;;4.13;2.05;;;;;;;20.25;74.32;100549.69;10591845;28;20071;-77
2022/07/26 02:36:22;;;;;;;1.95;1.80;;;;;;;20.30;73.42;100548.63;10609220;28;20423;-77
2022/07/26 02:41:24;;;;;;;2.85;1.80;;;;;;;20.45;72.53;100547.97;10590675;28;20451;-77
2022/07/26 02:46:27;;;;;;;1.70;1.55;;;;;;;20.49;72.26;100543.34;10591616;28;20045;-77
2022/07/26 02:51:29;;;;;;;2.03;1.80;;;;;;;20.55;71.61;100550.28;10592381;28;20039;-77
2022/07/26 02:56:32;;;;;;;2.22;1.75;;;;;;;20.71;71.79;100553.19;10596456;28;20035;-77
2022/07/26 03:01:34;;;;;;;2.22;1.42;;;;;;;20.96;70.44;100548.34;10600458;28;20039;-77
2022/07/26 03:06:37;;;;;;;2.30;1.63;;;;;;;20.94;70.15;100554.28;10603353;28;20043;-77
2022/07/26 03:11:39;;;;;;;2.05;1.70;;;;;;;20.99;69.61;100556.81;10564709;28;20052;-77
2022/07/26 03:16:41;;;;;;;2.00;1.65;;;;;;;21.12;68.71;100543.63;10599690;28;20035;-77
2022/07/26 03:21:43;;;;;;;1.95;1.52;;;;;;;21.17;67.33;100548.13;10598813;28;20043;-77
2022/07/26 03:26:46;;;;;;;2.65;1.63;;;;;;;21.26;66.37;100549.66;10559783;28;20067;-77
2022/07/26 03:31:48;;;;;;;2.22;1.88;;;;;;;21.30;65.72;100542.19;10582924;28;20812;-77
2022/07/26 03:36:50;;;;;;;1.77;1.60;;;;;;;21.72;64.63;100543.72;10598113;28;20048;-77
2022/07/26 03:41:53;;;;;;;1.60;1.50;;;;;;;22.01;63.61;100532.09;10595576;28;20386;-77
2022/07/26 03:46:55;;;;;;;2.38;1.38;;;;;;;22.37;62.22;100531.00;10565966;28;20459;-78
2022/07/26 03:51:58;;;;;;;2.20;1.48;;;;;;;22.65;60.54;100532.84;10614482;28;20043;-77
2022/07/26 03:57:00;;;;;;;3.25;1.55;;;;;;;23.00;58.38;100530.84;10580128;28;20075;-77
2022/07/26 04:02:03;;;;;;;3.60;1.85;;;;;;;23.25;58.04;100525.75;10612489;28;20040;-77
2022/07/26 04:07:05;;;;;;;1.25;1.15;;;;;;;23.58;55.87;100522.41;10593023;28;20070;-78
2022/07/26 04:12:08;;;;;;;4.18;1.65;;;;;;;23.46;56.08;100529.00;10597285;28;20497;-78
2022/07/26 04:17:10;;;;;;;2.10;1.60;;;;;;;23.76;55.39;100519.94;10599505;27;20039;-78
2022/07/26 04:22:15;;;;;;;1.63;1.52;;;;;;;24.00;55.32;100519.56;10575298;28;20051;-78
2022/07/26 04:27:17;;;;;;;2.13;1.45;;;;;;;24.38;53.67;100519.78;10575375;28;20048;-78
2022/07/26 04:32:20;;;;;;;2.55;1.60;;;;;;;24.70;53.78;100512.66;10604727;28;20079;-78
2022/07/26 04:37:22;;;;;;;1.98;1.45;;;;;;;24.99;52.43;100507.41;10602583;28;20035;-78
2022/07/26 04:42:24;;;;;;;1.67;1.42;;;;;;;25.09;51.92;100506.75;10595264;28;20044;-78
2022/07/26 04:47:27;;;;;;;2.35;1.55;;;;;;;25.36;51.22;100508.28;10613063;28;20059;-79
2022/07/26 04:52:29;;;;;;;3.83;1.67;;;;;;;25.70;50.88;100506.25;10611910;28;20401;-79
2022/07/26 04:57:32;;;;;;;1.73;1.60;;;;;;;26.00;49.85;100499.66;10606194;28;20043;-79
2022/07/26 05:02:35;;;;;;;1.92;1.67;;;;;;;26.28;48.41;100505.53;10595027;28;20218;-79
2022/07/26 05:07:45;;;;;;;2.30;1.80;;;;;;;26.86;47.08;100503.88;10583511;28;20059;-79
2022/07/26 05:12:48;;;;;;;3.38;1.98;;;;;;;27.38;45.13;100504.50;10552177;28;20048;-79
2022/07/26 05:17:51;;;;;;;4.18;1.83;;;;;;;27.62;44.68;100498.91;10551884;28;20040;-79
2022/07/26 05:22:53;;;;;;;1.95;1.70;;;;;;;27.90;44.13;100512.25;10552058;28;20413;-79
2022/07/26 05:27:55;;;;;;;2.03;1.77;;;;;;;28.16;41.97;100508.22;10535203;28;20043;-79
2022/07/26 05:32:58;;;;;;;2.42;1.48;;;;;;;28.16;41.11;100504.59;10551811;28;20032;-79
2022/07/26 05:38:00;;;;;;;2.70;1.95;;;;;;;27.98;40.78;100512.28;10587635;28;20501;-79
2022/07/26 05:43:03;;;;;;;2.45;1.67;;;;;;;27.89;40.63;100507.81;10610669;28;20036;-79
2022/07/26 05:48:06;;;;;;;2.40;1.27;;;;;;;28.41;39.20;100505.41;10560898;28;20051;-79
2022/07/26 05:53:09;;;;;;;1.83;1.40;;;;;;;28.70;38.06;100513.81;10611127;28;20051;-79
2022/07/26 05:58:11;;;;;;;2.47;1.70;;;;;;;28.92;37.67;100506.91;10609992;28;20559;-79
2022/07/26 06:03:22;;;;;;;2.08;1.42;;;;;;;29.07;37.30;100499.97;10611432;28;20043;-79
2022/07/26 06:08:25;;;;;;;3.50;1.77;;;;;;;28.81;37.85;100494.78;10591167;28;20394;-79
2022/07/26 06:13:28;;;;;;;2.85;1.55;;;;;;;28.63;36.92;100488.41;10574867;28;20046;-79
2022/07/26 06:18:31;;;;;;;3.35;1.60;;;;;;;28.57;35.95;100498.50;10610995;28;20047;-79
2022/07/26 06:23:33;;;;;;;2.53;1.48;;;;;;;28.86;34.15;100493.59;10552877;28;20059;-79
2022/07/26 06:28:37;;;;;;;2.17;1.40;;;;;;;29.16;33.97;100490.22;10573491;28;20060;-79
2022/07/26 06:33:39;;;;;;;2.45;1.50;;;;;;;29.69;32.65;100487.94;10577192;28;20051;-79
2022/07/26 06:38:41;;;;;;;1.88;1.38;;;;;;;29.62;33.17;100478.69;10576512;28;20040;-79
2022/07/26 06:43:44;;;;;;;2.10;1.30;;;;;;;29.97;32.67;100480.41;10603540;28;20046;-79
2022/07/26 06:48:47;;;;;;;2.90;1.23;;;;;;;30.25;32.58;100480.19;10599857;28;20059;-79
2022/07/26 06:53:49;;;;;;;1.90;1.33;;;;;;;30.80;31.99;100484.88;10599759;28;20043;-79
2022/07/26 06:58:54;;;;;;;3.40;1.27;;;;;;;31.04;31.54;100476.47;10618597;28;20050;-79
2022/07/26 07:03:56;;;;;;;2.22;1.30;;;;;;;31.27;30.92;100473.75;10601237;28;20055;-79
2022/07/26 07:08:58;;;;;;;2.28;1.38;;;;;;;31.65;31.10;100473.59;10595943;28;20105;-78
2022/07/26 07:14:02;;;;;;;4.03;1.27;;;;;;;31.95;30.46;100467.06;10617393;28;20051;-78
2022/07/26 07:19:04;;;;;;;2.20;1.73;;;;;;;31.77;30.80;100473.03;10617555;28;20039;-81
2022/07/26 07:24:06;;;;;;;2.78;1.70;;;;;;;31.37;30.39;100481.28;10617016;28;20052;-80
2022/07/26 07:29:11;;;;;;;5.53;1.95;;;;;;;30.83;31.02;100472.69;10598225;28;20044;-87
2022/07/26 07:34:14;;;;;;;2.72;1.67;;;;;;;31.01;31.34;100466.00;10584090;28;20442;-89
2022/07/26 07:39:17;;;;;;;3.38;1.83;;;;;;;30.97;32.53;100462.41;10597995;28;20039;-89
2022/07/26 07:44:19;;;;;;;5.53;2.33;;;;;;;30.46;32.74;100452.88;10598714;28;20043;-90
2022/07/26 07:49:22;;;;;;;3.63;2.00;;;;;;;29.95;33.84;100463.06;10615850;28;20074;-89
2022/07/26 07:54:25;;;;;;;3.08;1.70;;;;;;;29.86;33.62;100462.75;10589780;28;20051;-80
2022/07/26 07:59:27;;;;;;;1.70;1.60;;;;;;;29.81;33.57;100460.34;10573925;28;20537;-80
2022/07/26 08:04:30;;;;;;;3.38;2.20;;;;;;;29.86;33.82;100457.09;10615275;28;20048;-80
2022/07/26 08:09:33;;;;;;;1.73;1.58;;;;;;;29.97;33.94;100457.78;10563075;28;20055;-79
2022/07/26 08:14:36;;;;;;;2.90;1.90;;;;;;;30.18;33.69;100448.31;10595626;28;20051;-82
2022/07/26 08:19:38;;;;;;;3.42;1.98;;;;;;;29.89;34.11;100456.25;10596088;28;20046;-80
2022/07/26 08:24:40;;;;;;;3.78;1.80;;;;;;;29.99;34.00;100446.84;10614482;28;20039;-79
2022/07/26 08:29:43;;;;;;;4.07;2.10;;;;;;;29.98;34.03;100448.88;10614120;28;20051;-81
2022/07/26 08:34:46;;;;;;;2.45;1.73;;;;;;;29.90;34.23;100449.38;10608877;28;20058;-83
2022/07/26 08:39:49;;;;;;;2.15;1.65;;;;;;;30.19;33.73;100445.06;10604837;28;20040;-81
2022/07/26 08:44:51;;;;;;;2.08;1.70;;;;;;;30.36;32.76;100445.28;10601949;28;20047;-82
2022/07/26 08:49:54;;;;;;;3.00;1.80;;;;;;;30.29;33.30;100446.97;10572421;28;20051;-82
2022/07/26 08:54:56;;;;;;;2.60;1.95;;;;;;;30.46;33.29;100448.00;10571125;28;20048;-81
2022/07/26 09:00:20;;;;;;;2.13;1.90;;;;;;;30.26;34.01;100439.34;10565084;28;20133;-85
2022/07/26 09:05:28;;;;;;;3.20;2.13;;;;;;;29.54;34.18;100446.84;10567176;28;20409;-84
2022/07/26 09:10:33;;;;;;;3.00;2.00;;;;;;;29.56;35.43;100447.22;10594681;28;20505;-83
2022/07/26 09:15:36;;;;;;;2.33;2.10;;;;;;;29.40;36.19;100430.75;10566606;28;20063;-83
2022/07/26 09:20:45;;;;;;;3.45;1.98;;;;;;;29.12;36.36;100419.63;10580347;28;20047;-78
2022/07/26 09:25:48;;;;;;;1.77;1.67;;;;;;;29.10;37.26;100411.56;10586391;28;20040;-77
2022/07/26 09:30:52;;;;;;;2.85;2.17;;;;;;;29.55;36.18;100420.16;10577756;28;20035;-78
2022/07/26 09:36:05;;;;;;;3.20;1.98;;;;;;;29.57;36.07;100425.41;10559546;28;20047;-78
2022/07/26 09:41:17;;;;;;;3.55;2.00;;;;;;;29.26;36.69;100415.91;10563359;28;20052;-77
2022/07/26 09:46:21;;;;;;;3.72;2.20;;;;;;;28.82;36.60;100400.41;10563926;28;20074;-78
2022/07/26 09:51:36;;;;;;;5.00;2.30;;;;;;;28.51;37.38;100400.13;10545975;28;20349;-77
2022/07/26 09:56:46;;;;;;;3.05;2.15;;;;;;;28.41;37.93;100406.59;10598311;28;20040;-78
2022/07/26 10:01:49;;;;;;;3.45;2.03;;;;;;;28.36;37.62;100384.47;10577618;28;20047;-77
2022/07/26 10:06:52;;;;;;;2.92;1.80;;;;;;;28.15;37.53;100390.13;10611340;28;20032;-78
2022/07/26 10:12:04;;;;;;;5.18;2.33;;;;;;;27.64;38.03;100382.97;10595264;28;20047;-78
2022/07/26 10:17:25;;;;;;;4.25;2.30;;;;;;;27.50;39.32;100389.38;10601969;28;20038;-78
2022/07/26 10:22:34;;;;;;;3.03;2.20;;;;;;;27.41;39.37;100380.50;10619521;28;20043;-78
2022/07/26 10:27:46;;;;;;;2.55;1.95;;;;;;;27.22;39.62;100376.06;10581798;28;20036;-78
2022/07/26 10:32:58;;;;;;;3.25;1.90;;;;;;;27.12;40.01;100365.59;10614991;28;20055;-78
2022/07/26 10:38:06;;;;;;;2.58;2.05;;;;;;;27.00;39.90;100357.53;10582648;28;20048;-78
2022/07/26 10:43:16;;;;;;;2.40;2.00;;;;;;;27.01;39.49;100362.75;10614429;28;20051;-80
2022/07/26 10:48:22;;;;;;;2.00;1.80;;;;;;;27.02;39.31;100357.94;10593770;28;20046;-80
2022/07/26 10:53:26;;;;;;;3.72;2.25;;;;;;;26.82;38.73;100362.28;10587729;28;20047;-79
2022/07/26 10:58:41;;;;;;;3.30;1.85;;;;;;;26.63;39.54;100357.81;10595599;28;20051;-77
2022/07/26 11:03:43;;;;;;;3.35;2.08;;;;;;;26.71;39.69;100350.97;10594071;28;20042;-83
2022/07/26 11:08:46;;;;;;;2.53;2.15;;;;;;;26.59;39.74;100348.56;10607188;28;20040;-80
2022/07/26 11:13:49;;;;;;;3.78;1.92;;;;;;;26.55;39.84;100337.25;10612272;28;20479;-80
2022/07/26 11:18:51;;;;;;;4.95;2.13;;;;;;;26.41;39.14;100342.88;10591028;28;20043;-79
2022/07/26 11:24:00;;;;;;;2.80;2.00;;;;;;;26.27;39.14;100342.75;10609644;28;20500;-79
2022/07/26 11:29:03;;;;;;;2.10;1.90;;;;;;;26.24;39.65;100343.56;10588370;28;20035;-78
2022/07/26 11:34:07;;;;;;;2.90;2.20;;;;;;;26.19;39.98;100344.72;10607889;28;20050;-78
2022/07/26 11:39:15;;;;;;;1.65;1.55;;;;;;;26.21;40.62;100338.69;10590697;28;20043;-83
2022/07/26 11:44:19;;;;;;;3.97;2.20;;;;;;;26.30;39.21;100337.16;10588862;28;20036;-79
2022/07/26 11:49:29;;;;;;;2.92;2.00;;;;;;;26.18;38.07;100323.41;10578583;28;20050;-79
2022/07/26 11:54:43;;;;;;;3.15;2.05;;;;;;;26.11;38.47;100331.84;10601116;28;20035;-85
2022/07/26 11:59:47;;;;;;;2.78;2.17;;;;;;;26.13;37.68;100326.63;10560169;28;20046;-79
2022/07/26 12:05:11;;;;;;;1.70;1.60;;;;;;;26.10;38.59;100311.34;10547271;28;20040;-81
2022/07/26 12:10:15;;;;;;;3.85;1.80;;;;;;;26.17;38.23;100316.19;10565508;28;20051;-79
2022/07/26 12:15:18;;;;;;;2.75;1.50;;;;;;;26.20;38.32;100306.16;10582413;28;20172;-78
2022/07/26 12:20:22;;;;;;;3.97;1.92;;;;;;;26.15;38.71;100307.34;10554258;28;20059;-78
2022/07/26 12:25:29;;;;;;;3.55;2.20;;;;;;;26.12;38.32;100300.50;10594946;27;20401;-78
2022/07/26 12:30:35;;;;;;;1.75;1.65;;;;;;;26.15;39.11;100280.03;10566762;28;20059;-77
2022/07/26 12:35:37;;;;;;;3.50;1.80;;;;;;;26.23;38.58;100280.06;10555627;28;20044;-79
2022/07/26 12:40:40;;;;;;;2.60;1.80;;;;;;;26.26;38.83;100277.25;10578753;28;20051;-79
2022/07/26 12:45:44;;;;;;;2.10;1.90;;;;;;;26.27;39.20;100267.63;10607089;28;20036;-80
2022/07/26 12:50:46;;;;;;;4.20;2.17;;;;;;;26.37;39.21;100257.63;10609352;28;20059;-80
2022/07/26 12:55:50;;;;;;;2.80;1.88;;;;;;;26.34;39.30;100259.19;10613091;28;20063;-80
2022/07/26 13:00:52;;;;;;;2.67;2.20;;;;;;;26.32;39.30;100250.34;10606669;28;20066;-80
2022/07/26 13:05:56;;;;;;;2.58;1.98;;;;;;;26.33;38.70;100234.28;10609857;28;20035;-80
2022/07/26 13:10:58;;;;;;;3.85;2.05;;;;;;;26.31;38.94;100234.66;10575460;28;20052;-80
2022/07/26 13:16:00;;;;;;;2.47;2.10;;;;;;;26.26;40.09;100240.69;10599401;28;20401;-80
2022/07/26 13:21:02;;;;;;;3.22;2.40;;;;;;;26.24;40.13;100231.03;10579637;28;20041;-84
2022/07/26 13:26:04;;;;;;;3.60;2.88;;;;;;;26.24;40.56;100222.59;10590411;28;20046;-84
2022/07/26 13:31:07;;;;;;;2.17;1.98;;;;;;;26.27;39.61;100224.63;10575035;28;20043;-84
2022/07/26 13:36:10;;;;;;;2.33;1.90;;;;;;;26.22;40.44;100216.59;10562221;28;20048;-92
2022/07/26 13:41:12;;;;;;;5.78;2.55;;;;;;;26.32;40.12;100227.84;10600741;28;20540;-85
2022/07/26 13:46:14;;;;;;;2.38;2.10;;;;;;;26.42;40.93;100223.50;10610790;28;20051;-87
2022/07/26 13:51:16;;;;;;;1.95;1.77;;;;;;;26.51;40.58;100217.47;10595315;28;20043;-87
2022/07/26 13:56:19;;;;;;;3.00;2.20;;;;;;;26.53;39.21;100209.41;10593449;28;20523;-86
2022/07/26 14:01:21;;;;;;;2.78;2.33;;;;;;;26.58;40.70;100207.03;10587497;28;20433;-84
2022/07/26 14:06:25;;;;;;;4.57;2.50;;;;;;;26.57;39.90;100202.63;10602445;28;20496;-88
2022/07/26 14:11:27;;;;;;;3.53;2.35;;;;;;;26.61;40.13;100200.59;10587646;28;20035;-88
2022/07/26 14:16:31;;;;;;;2.33;2.03;;;;;;;26.66;41.47;100194.56;10595553;28;20050;-85
2022/07/26 14:21:33;;;;;;;4.03;2.50;;;;;;;26.69;41.45;100199.38;10608762;28;20040;-86
2022/07/26 14:26:35;;;;;;;3.80;2.60;;;;;;;26.73;42.45;100191.78;10608786;28;20043;-87
2022/07/26 14:31:38;;;;;;;3.08;2.38;;;;;;;26.80;42.55;100176.06;10609838;28;20039;-86
2022/07/26 14:36:41;;;;;;;2.45;2.00;;;;;;;26.87;41.85;100178.88;10591407;28;20059;-77
2022/07/26 14:41:43;;;;;;;3.38;2.10;;;;;;;26.88;41.47;100186.13;10597090;28;20040;-92
2022/07/26 14:46:46;;;;;;;2.58;2.38;;;;;;;26.85;42.19;100182.09;10612886;28;20032;-89
2022/07/26 14:51:48;;;;;;;2.92;2.33;;;;;;;26.79;42.10;100177.28;10624003;28;20035;-94
2022/07/26 14:56:51;;;;;;;4.63;2.10;;;;;;;26.71;42.40;100188.53;10621924;28;20043;-90
2022/07/26 15:01:53;;;;;;;2.72;2.53;;;;;;;26.73;41.91;100168.44;10608139;28;20528;-84
2022/07/26 15:06:56;;;;;;;4.78;2.33;;;;;;;26.77;42.74;100174.88;10578998;28;20047;-79
2022/07/26 15:11:59;;;;;;;2.95;2.28;;;;;;;26.78;42.73;100175.69;10598554;28;20047;-81
2022/07/26 15:17:02;;;;;;;3.22;2.22;;;;;;;26.79;42.63;100177.28;10608357;28;20528;-83
2022/07/26 15:22:04;;;;;;;4.10;2.30;;;;;;;26.76;43.19;100164.81;10597251;28;20056;-82
2022/07/26 15:27:06;;;;;;;2.65;2.38;;;;;;;26.70;43.31;100169.22;10608467;28;20060;-84
2022/07/26 15:32:09;;;;;;;5.32;2.38;;;;;;;26.67;42.58;100170.03;10612434;28;20394;-86
2022/07/26 15:37:11;;;;;;;5.70;2.10;;;;;;;26.55;43.59;100171.22;10607813;28;20036;-84
2022/07/26 15:42:14;;;;;;;2.83;2.28;;;;;;;26.42;42.97;100168.03;10582815;28;20035;-84
2022/07/26 15:47:16;;;;;;;3.97;2.88;;;;;;;26.40;43.95;100161.19;10602398;28;20048;-82
2022/07/26 15:52:18;;;;;;;3.03;2.42;;;;;;;26.32;43.65;100168.78;10632028;27;20047;-84
2022/07/26 15:57:22;;;;;;;3.72;2.40;;;;;;;26.26;44.00;100167.56;10607757;28;20054;-82
2022/07/26 16:02:25;;;;;;;5.78;2.67;;;;;;;26.17;44.00;100152.25;10603923;28;20055;-87
2022/07/26 16:07:27;;;;;;;5.38;2.70;;;;;;;26.05;43.84;100162.69;10607342;28;20035;-89
2022/07/26 16:12:29;;;;;;;2.85;2.45;;;;;;;25.96;43.73;100153.81;10569567;28;20515;-80
2022/07/26 16:17:32;;;;;;;6.25;2.60;;;;;;;25.93;44.68;100153.81;10607063;28;20055;-84
2022/07/26 16:22:34;;;;;;;2.70;2.42;;;;;;;25.88;44.33;100145.78;10601506;28;20039;-84
2022/07/26 16:27:36;;;;;;;2.95;2.55;;;;;;;25.80;44.72;100150.56;10555380;28;20046;-84
2022/07/26 16:32:42;;;;;;;5.03;3.10;;;;;;;25.78;45.59;100150.16;10557465;28;20073;-80
2022/07/26 16:37:44;;;;;;;3.45;2.47;;;;;;;25.75;45.29;100148.13;10604087;28;20035;-83
2022/07/26 16:43:12;;;;;;;4.80;2.47;;;;;;;25.74;44.68;100140.91;10609825;28;20400;-78
2022/07/26 16:48:15;;;;;;;4.30;2.63;;;;;;;25.71;45.60;100138.91;10605263;28;20044;-85
2022/07/26 16:53:18;;;;;;;3.78;2.53;;;;;;;25.70;45.08;100128.84;10571772;28;20035;-84
2022/07/26 16:58:21;;;;;;;3.25;2.20;;;;;;;25.61;45.46;100119.94;10580408;28;20054;-83
2022/07/26 17:03:23;;;;;;;3.97;2.00;;;;;;;25.52;45.57;100120.34;10599198;28;20409;-81
2022/07/26 17:08:26;;;;;;;2.55;2.17;;;;;;;25.44;44.96;100124.28;10604709;28;20047;-81
2022/07/26 17:13:28;;;;;;;6.97;1.98;;;;;;;25.34;45.40;100123.06;10593662;28;20048;-81
2022/07/26 17:18:30;;;;;;;3.45;2.30;;;;;;;25.25;46.23;100119.78;10577955;28;20048;-90
2022/07/26 17:23:35;;;;;;;4.25;2.47;;;;;;;25.22;46.49;100112.16;10594021;28;20404;-81
2022/07/26 17:28:37;;;;;;;2.78;2.13;;;;;;;25.17;46.15;100113.34;10576024;28;20044;-86
2022/07/26 17:33:39;;;;;;;2.95;2.30;;;;;;;25.15;45.92;100120.53;10578661;28;20031;-83
2022/07/26 17:38:41;;;;;;;3.05;2.45;;;;;;;25.09;46.15;100117.28;10587848;28;20047;-83
2022/07/26 17:43:44;;;;;;;2.50;2.30;;;;;;;25.05;46.65;100110.06;10606228;28;20417;-90
2022/07/26 17:48:46;;;;;;;2.75;2.45;;;;;;;25.03;46.75;100112.44;10598443;28;20172;-82
2022/07/26 17:53:48;;;;;;;3.13;1.98;;;;;;;25.00;46.73;100116.03;10611359;28;20050;-82
2022/07/26 17:58:55;;;;;;;2.73;2.43;;;;;;;24.94;47.58;100113.56;10603756;28;20498;-87
2022/07/26 18:03:57;;;;;;;2.47;2.13;;;;;;;24.89;47.44;100122.34;10556992;28;20035;-94
2022/07/26 18:08:59;;;;;;;3.38;2.22;;;;;;;24.85;47.38;100123.53;10575968;28;20043;-86
2022/07/26 18:14:02;;;;;;;3.13;2.70;;;;;;;24.78;47.75;100121.47;10595266;28;20039;-89
2022/07/26 18:19:05;;;;;;;4.22;2.53;;;;;;;24.74;48.33;100129.06;10555954;28;20666;-85
2022/07/26 18:24:08;;;;;;;3.30;2.25;;;;;;;24.69;47.24;100121.00;10571960;28;20043;-87
2022/07/26 18:29:10;;;;;;;4.32;2.60;;;;;;;24.65;48.18;100123.78;10602710;28;20039;-83
2022/07/26 18:34:12;;;;;;;3.10;2.60;;;;;;;24.60;48.13;100126.13;10604700;28;20048;-92
2022/07/26 18:39:14;;;;;;;4.35;2.28;;;;;;;24.54;48.07;100125.69;10604572;28;20042;-81
2022/07/26 18:44:21;;;;;;;5.97;2.47;;;;;;;24.47;48.65;100120.03;10614914;28;20062;-86
2022/07/26 18:49:24;;;;;;;6.38;2.80;;;;;;;24.41;49.10;100131.97;10593318;28;20504;-85
2022/07/26 18:54:26;;;;;;;3.95;3.30;;;;;;;24.31;49.91;100134.31;10600851;28;20062;-86
2022/07/26 18:59:29;;;;;;;4.18;2.70;;;;;;;24.25;50.05;100130.22;10566064;28;20066;-81
2022/07/26 19:04:32;;;;;;;4.20;2.75;;;;;;;24.18;49.62;100127.34;10605047;27;20051;-88
2022/07/26 19:09:35;;;;;;;7.30;2.55;;;;;;;24.14;50.13;100120.09;10601486;28;20051;-85
2022/07/26 19:14:37;;;;;;;5.47;3.22;;;;;;;24.11;49.66;100134.88;10564990;28;20513;-84
2022/07/26 19:19:41;;;;;;;3.83;2.67;;;;;;;24.06;50.69;100130.41;10602124;28;20048;-83
2022/07/26 19:24:43;;;;;;;4.03;3.13;;;;;;;24.02;50.81;100129.59;10596997;28;20059;-87
2022/07/26 19:29:47;;;;;;;5.50;2.80;;;;;;;23.95;50.87;100121.09;10599291;28;20040;-86
2022/07/26 19:34:49;;;;;;;4.25;2.70;;;;;;;23.89;51.44;100115.03;10582807;28;20038;-86
2022/07/26 19:39:54;;;;;;;3.53;2.53;;;;;;;23.84;51.64;100120.19;10606843;28;20044;-86
2022/07/26 19:44:57;;;;;;;4.63;3.20;;;;;;;23.77;51.69;100121.69;10591213;28;20042;-82
2022/07/26 19:50:00;;;;;;;3.65;2.80;;;;;;;23.69;51.84;100120.00;10569778;28;20157;-83
2022/07/26 19:55:03;;;;;;;3.95;2.70;;;;;;;23.68;51.99;100115.59;10571096;28;20031;-75
2022/07/26 20:00:06;;;;;;;4.05;2.80;;;;;;;23.65;51.80;100107.97;10587997;27;20564;-86
2022/07/26 20:05:14;;;;;;;4.72;3.10;;;;;;;23.59;52.23;100115.09;10608278;28;20046;-82
2022/07/26 20:10:17;;;;;;;4.63;2.47;;;;;;;23.54;52.78;100121.00;10598408;28;20047;-82
2022/07/26 20:15:21;;;;;;;4.43;2.60;;;;;;;23.50;52.44;100119.34;10604587;28;20525;-79
2022/07/26 20:20:23;;;;;;;5.38;3.10;;;;;;;23.45;53.17;100123.31;10561946;28;20047;-78
2022/07/26 20:25:26;;;;;;;3.67;3.20;;;;;;;23.44;52.85;100118.88;10595504;28;20040;-80
2022/07/26 20:30:29;;;;;;;7.88;4.65;;;;;;;23.40;53.24;100118.00;10563204;28;20051;-81
2022/07/26 20:35:32;;;;;;;5.00;3.58;;;;;;;23.32;53.09;100114.31;10586390;28;20040;-82
2022/07/26 20:40:34;;;;;;;9.93;5.50;;;;;;;23.29;53.26;100111.50;10574820;28;20126;-81
2022/07/26 20:45:37;;;;;;;8.40;4.20;;;;;;;23.23;53.58;100116.59;10579417;28;20501;-81
2022/07/26 20:50:39;;;;;;;4.63;3.05;;;;;;;23.20;53.93;100116.53;10600075;28;20071;-82
2022/07/26 20:55:41;;;;;;;4.22;3.38;;;;;;;23.12;54.69;100130.47;10593019;28;20036;-85
2022/07/26 21:00:43;;;;;;;5.60;3.28;;;;;;;23.04;54.46;100111.13;10578314;28;20494;-81
2022/07/26 21:05:46;;;;;;;4.60;3.30;;;;;;;22.98;55.49;100113.47;10590929;28;20044;-82
2022/07/26 21:10:48;;;;;;;4.85;3.22;;;;;;;22.95;55.79;100108.63;10586583;28;20064;-79
2022/07/26 21:15:53;;;;;;;3.38;2.92;;;;;;;22.91;55.79;100123.72;10570370;28;20548;-79
2022/07/26 21:20:56;;;;;;;3.42;2.90;;;;;;;22.85;55.14;100120.44;10593271;28;20047;-77
2022/07/26 21:25:58;;;;;;;3.85;3.03;;;;;;;22.80;55.74;100118.75;10591152;28;20043;-80
2022/07/26 21:31:01;;;;;;;3.35;2.60;;;;;;;22.75;56.13;100105.09;10573206;28;20409;-78
2022/07/26 21:36:03;;;;;;;4.55;3.40;;;;;;;22.73;56.17;100113.03;10574877;28;20054;-78
2022/07/26 21:41:05;;;;;;;3.22;2.50;;;;;;;22.68;56.46;100112.56;10591907;28;20039;-78
2022/07/26 21:46:08;;;;;;;6.18;2.75;;;;;;;22.61;57.14;100118.06;10555452;28;20050;-78
2022/07/26 21:51:10;;;;;;;2.90;2.60;;;;;;;22.56;56.34;100113.56;10577373;28;20058;-80
2022/07/26 21:56:12;;;;;;;4.28;2.90;;;;;;;22.53;56.86;100115.13;10600532;28;20531;-80
2022/07/26 22:01:15;;;;;;;5.20;2.83;;;;;;;22.46;56.73;100106.63;10594925;28;20394;-81
2022/07/26 22:06:18;;;;;;;3.70;2.75;;;;;;;22.38;57.63;100107.69;10566282;28;20536;-82
2022/07/26 22:11:20;;;;;;;4.90;2.90;;;;;;;22.35;56.99;100093.66;10595773;28;20042;-82
2022/07/26 22:16:22;;;;;;;4.55;2.72;;;;;;;22.35;56.57;100108.44;10563578;28;20055;-82
2022/07/26 22:21:25;;;;;;;5.95;2.83;;;;;;;22.32;57.12;100088.81;10587778;28;20513;-85
2022/07/26 22:26:29;;;;;;;4.90;2.70;;;;;;;22.31;57.13;100096.38;10582715;28;20890;-82
2022/07/26 22:31:32;;;;;;;3.60;2.53;;;;;;;22.22;58.37;100091.06;10589396;28;20066;-83
2022/07/26 22:36:34;;;;;;;3.58;2.63;;;;;;;22.20;58.22;100089.78;10573481;28;20059;-84
2022/07/26 22:41:36;;;;;;;4.45;2.60;;;;;;;22.15;58.69;100093.72;10574828;28;20039;-82
2022/07/26 22:46:38;;;;;;;5.20;2.85;;;;;;;22.11;59.00;100083.66;10565551;28;20051;-80
2022/07/26 22:51:41;;;;;;;6.75;3.25;;;;;;;22.08;59.04;100081.63;10593485;28;20059;-81
2022/07/26 22:56:43;;;;;;;4.88;3.13;;;;;;;21.98;58.84;100078.22;10580769;28;20028;-84
2022/07/26 23:01:45;;;;;;;3.22;2.55;;;;;;;21.96;59.24;100080.56;10553976;28;20038;-80
2022/07/26 23:06:47;;;;;;;5.18;3.00;;;;;;;21.91;58.56;100078.09;10597232;28;20419;-82
2022/07/26 23:11:50;;;;;;;4.10;2.67;;;;;;;21.87;58.88;100074.44;10605465;27;20385;-82